sensor_id;sensor_type;location;lat;lon;timestamp;P1;durP1;ratioP1;P2;durP2;ratioP2
11655;SDS011;5884;43.618;1.438;2023-09-30T04:46:07;12.10;;;6.23;;
11655;SDS011;5884;43.618;1.438;2023-09-30T04:48:37;15.57;;;5.90;;
11655;SDS011;5884;43.618;1.438;2023-09-30T04:51:06;8.83;;;5.30;;
11655;SDS011;5884;43.618;1.438;2023-09-30T04:53:34;11.60;;;5.70;;
11655;SDS011;5884;43.618;1.438;2023-09-30T04:56:02;16.60;;;5.80;;
11655;SDS011;5884;43.618;1.438;2023-09-30T04:58:30;9.20;;;4.87;;
11655;SDS011;5884;43.618;1.438;2023-09-30T05:00:57;11.83;;;5.27;;
11655;SDS011;5884;43.618;1.438;2023-09-30T05:03:25;9.10;;;4.53;;
11655;SDS011;5884;43.618;1.438;2023-09-30T05:05:53;10.90;;;5.70;;
11655;SDS011;5884;43.618;1.438;2023-09-30T05:08:22;12.50;;;5.57;;
11655;SDS011;5884;43.618;1.438;2023-09-30T05:10:50;12.63;;;5.60;;
11655;SDS011;5884;43.618;1.438;2023-09-30T05:13:20;11.37;;;5.67;;
11655;SDS011;5884;43.618;1.438;2023-09-30T05:15:48;12.03;;;5.37;;
11655;SDS011;5884;43.618;1.438;2023-09-30T05:18:16;9.60;;;4.90;;
11655;SDS011;5884;43.618;1.438;2023-09-30T05:20:45;11.80;;;5.23;;
11655;SDS011;5884;43.618;1.438;2023-09-30T05:23:12;11.07;;;5.47;;
11655;SDS011;5884;43.618;1.438;2023-09-30T05:25:39;10.37;;;5.30;;
11655;SDS011;5884;43.618;1.438;2023-09-30T05:28:08;8.60;;;5.07;;
11655;SDS011;5884;43.618;1.438;2023-09-30T05:30:36;11.87;;;5.47;;
11655;SDS011;5884;43.618;1.438;2023-09-30T05:33:04;13.97;;;5.93;;
11655;SDS011;5884;43.618;1.438;2023-09-30T05:35:31;12.33;;;5.63;;
11655;SDS011;5884;43.618;1.438;2023-09-30T05:38:00;12.73;;;6.13;;
11655;SDS011;5884;43.618;1.438;2023-09-30T05:40:29;12.07;;;5.97;;
11655;SDS011;5884;43.618;1.438;2023-09-30T05:42:56;12.70;;;6.27;;
11655;SDS011;5884;43.618;1.438;2023-09-30T05:45:24;13.03;;;6.00;;
11655;SDS011;5884;43.618;1.438;2023-09-30T05:47:52;13.83;;;6.13;;
11655;SDS011;5884;43.618;1.438;2023-09-30T05:50:21;11.93;;;5.57;;
11655;SDS011;5884;43.618;1.438;2023-09-30T05:52:51;15.87;;;6.10;;
11655;SDS011;5884;43.618;1.438;2023-09-30T05:55:21;11.73;;;5.93;;
11655;SDS011;5884;43.618;1.438;2023-09-30T05:57:50;12.73;;;5.90;;
11655;SDS011;5884;43.618;1.438;2023-09-30T06:00:18;14.43;;;6.33;;
11655;SDS011;5884;43.618;1.438;2023-09-30T06:02:52;13.33;;;6.80;;
11655;SDS011;5884;43.618;1.438;2023-09-30T06:05:20;11.07;;;5.50;;
11655;SDS011;5884;43.618;1.438;2023-09-30T06:07:48;15.37;;;5.87;;
11655;SDS011;5884;43.618;1.438;2023-09-30T06:10:15;12.13;;;4.83;;
11655;SDS011;5884;43.618;1.438;2023-09-30T06:12:46;9.57;;;4.80;;
11655;SDS011;5884;43.618;1.438;2023-09-30T06:15:14;8.60;;;4.87;;
11655;SDS011;5884;43.618;1.438;2023-09-30T06:17:46;10.33;;;5.50;;
11655;SDS011;5884;43.618;1.438;2023-09-30T06:20:15;9.77;;;4.87;;
11655;SDS011;5884;43.618;1.438;2023-09-30T06:22:43;9.80;;;4.97;;
11655;SDS011;5884;43.618;1.438;2023-09-30T06:25:12;11.73;;;5.70;;
11655;SDS011;5884;43.618;1.438;2023-09-30T06:27:41;7.87;;;4.73;;
11655;SDS011;5884;43.618;1.438;2023-09-30T06:30:11;8.63;;;4.37;;
11655;SDS011;5884;43.618;1.438;2023-09-30T06:32:41;7.47;;;4.80;;
11655;SDS011;5884;43.618;1.438;2023-09-30T06:35:08;9.23;;;4.43;;
11655;SDS011;5884;43.618;1.438;2023-09-30T06:37:37;6.63;;;4.67;;
11655;SDS011;5884;43.618;1.438;2023-09-30T06:40:05;7.67;;;4.27;;
11655;SDS011;5884;43.618;1.438;2023-09-30T06:42:36;12.03;;;4.83;;
11655;SDS011;5884;43.618;1.438;2023-09-30T06:45:05;12.30;;;4.37;;
11655;SDS011;5884;43.618;1.438;2023-09-30T06:47:36;9.27;;;4.77;;
11655;SDS011;5884;43.618;1.438;2023-09-30T06:50:08;10.60;;;5.37;;
11655;SDS011;5884;43.618;1.438;2023-09-30T06:52:38;9.80;;;4.70;;
11655;SDS011;5884;43.618;1.438;2023-09-30T06:55:06;13.43;;;5.43;;
11655;SDS011;5884;43.618;1.438;2023-09-30T06:57:34;11.27;;;4.93;;
11655;SDS011;5884;43.618;1.438;2023-09-30T07:00:04;9.03;;;5.07;;
11655;SDS011;5884;43.618;1.438;2023-09-30T07:02:34;7.20;;;4.23;;
11655;SDS011;5884;43.618;1.438;2023-09-30T07:05:05;8.90;;;4.50;;
11655;SDS011;5884;43.618;1.438;2023-09-30T07:07:33;10.17;;;4.50;;
11655;SDS011;5884;43.618;1.438;2023-09-30T07:10:00;10.17;;;5.17;;
11655;SDS011;5884;43.618;1.438;2023-09-30T07:12:27;9.63;;;4.73;;
11655;SDS011;5884;43.618;1.438;2023-09-30T07:14:56;9.60;;;5.00;;
11655;SDS011;5884;43.618;1.438;2023-09-30T07:17:24;8.87;;;4.33;;
11655;SDS011;5884;43.618;1.438;2023-09-30T07:19:53;11.07;;;4.70;;
11655;SDS011;5884;43.618;1.438;2023-09-30T07:22:20;8.47;;;4.93;;
11655;SDS011;5884;43.618;1.438;2023-09-30T07:24:47;14.97;;;4.80;;
11655;SDS011;5884;43.618;1.438;2023-09-30T07:27:15;11.63;;;4.83;;
11655;SDS011;5884;43.618;1.438;2023-09-30T07:29:43;10.13;;;4.57;;
11655;SDS011;5884;43.618;1.438;2023-09-30T07:32:10;10.70;;;4.70;;
11655;SDS011;5884;43.618;1.438;2023-09-30T07:34:38;12.07;;;5.20;;
11655;SDS011;5884;43.618;1.438;2023-09-30T07:37:06;9.43;;;4.63;;
11655;SDS011;5884;43.618;1.438;2023-09-30T07:39:34;12.33;;;4.97;;
11655;SDS011;5884;43.618;1.438;2023-09-30T07:42:02;12.37;;;5.00;;
11655;SDS011;5884;43.618;1.438;2023-09-30T07:44:30;8.00;;;4.57;;
11655;SDS011;5884;43.618;1.438;2023-09-30T07:46:58;13.70;;;5.20;;
11655;SDS011;5884;43.618;1.438;2023-09-30T07:49:25;11.23;;;4.53;;
11655;SDS011;5884;43.618;1.438;2023-09-30T07:51:52;11.23;;;5.17;;
11655;SDS011;5884;43.618;1.438;2023-09-30T07:54:21;11.13;;;5.33;;
11655;SDS011;5884;43.618;1.438;2023-09-30T07:56:48;10.17;;;4.90;;
11655;SDS011;5884;43.618;1.438;2023-09-30T07:59:16;9.50;;;5.23;;
11655;SDS011;5884;43.618;1.438;2023-09-30T08:01:43;10.73;;;5.03;;
11655;SDS011;5884;43.618;1.438;2023-09-30T08:04:10;12.80;;;5.63;;
11655;SDS011;5884;43.618;1.438;2023-09-30T08:06:37;9.57;;;5.37;;
11655;SDS011;5884;43.618;1.438;2023-09-30T08:09:05;11.27;;;5.00;;
11655;SDS011;5884;43.618;1.438;2023-09-30T08:11:38;12.10;;;5.03;;
11655;SDS011;5884;43.618;1.438;2023-09-30T08:14:05;10.20;;;5.00;;
11655;SDS011;5884;43.618;1.438;2023-09-30T08:16:34;12.90;;;5.43;;
11655;SDS011;5884;43.618;1.438;2023-09-30T08:19:02;12.87;;;5.40;;
11655;SDS011;5884;43.618;1.438;2023-09-30T08:21:29;12.43;;;4.97;;
11655;SDS011;5884;43.618;1.438;2023-09-30T08:23:57;8.67;;;4.90;;
11655;SDS011;5884;43.618;1.438;2023-09-30T08:26:24;10.70;;;4.87;;
11655;SDS011;5884;43.618;1.438;2023-09-30T08:28:52;11.27;;;4.97;;
11655;SDS011;5884;43.618;1.438;2023-09-30T08:31:20;9.87;;;4.80;;
11655;SDS011;5884;43.618;1.438;2023-09-30T08:33:48;13.60;;;5.40;;
11655;SDS011;5884;43.618;1.438;2023-09-30T08:36:15;11.97;;;5.10;;
11655;SDS011;5884;43.618;1.438;2023-09-30T08:38:43;9.40;;;4.43;;
11655;SDS011;5884;43.618;1.438;2023-09-30T08:41:11;10.23;;;4.87;;
11655;SDS011;5884;43.618;1.438;2023-09-30T08:43:55;10.07;;;4.97;;
11655;SDS011;5884;43.618;1.438;2023-09-30T08:46:27;10.83;;;4.70;;
11655;SDS011;5884;43.618;1.438;2023-09-30T08:48:58;10.93;;;5.10;;
11655;SDS011;5884;43.618;1.438;2023-09-30T08:51:29;12.20;;;4.67;;
11655;SDS011;5884;43.618;1.438;2023-09-30T08:53:57;10.00;;;4.80;;
11655;SDS011;5884;43.618;1.438;2023-09-30T08:56:27;13.50;;;4.60;;
11655;SDS011;5884;43.618;1.438;2023-09-30T08:58:58;11.73;;;5.37;;
11655;SDS011;5884;43.618;1.438;2023-09-30T09:01:27;10.57;;;5.33;;
11655;SDS011;5884;43.618;1.438;2023-09-30T09:03:56;10.87;;;4.90;;
11655;SDS011;5884;43.618;1.438;2023-09-30T09:06:24;10.73;;;4.93;;
11655;SDS011;5884;43.618;1.438;2023-09-30T09:08:52;15.90;;;5.03;;
11655;SDS011;5884;43.618;1.438;2023-09-30T09:11:19;15.30;;;5.23;;
11655;SDS011;5884;43.618;1.438;2023-09-30T09:13:49;11.93;;;5.23;;
11655;SDS011;5884;43.618;1.438;2023-09-30T09:16:22;10.47;;;5.20;;
11655;SDS011;5884;43.618;1.438;2023-09-30T09:18:50;10.77;;;3.90;;
11655;SDS011;5884;43.618;1.438;2023-09-30T09:21:20;11.63;;;4.40;;
11655;SDS011;5884;43.618;1.438;2023-09-30T09:23:51;11.17;;;4.80;;
11655;SDS011;5884;43.618;1.438;2023-09-30T09:26:23;9.20;;;5.00;;
11655;SDS011;5884;43.618;1.438;2023-09-30T09:28:56;11.97;;;4.97;;
11655;SDS011;5884;43.618;1.438;2023-09-30T09:31:27;9.50;;;4.37;;
11655;SDS011;5884;43.618;1.438;2023-09-30T09:33:55;7.77;;;3.97;;
11655;SDS011;5884;43.618;1.438;2023-09-30T09:36:38;9.00;;;3.83;;
11655;SDS011;5884;43.618;1.438;2023-09-30T09:39:06;10.90;;;4.37;;
11655;SDS011;5884;43.618;1.438;2023-09-30T09:41:34;10.30;;;4.20;;
11655;SDS011;5884;43.618;1.438;2023-09-30T09:44:17;8.93;;;4.37;;
11655;SDS011;5884;43.618;1.438;2023-09-30T09:46:48;8.53;;;4.43;;
11655;SDS011;5884;43.618;1.438;2023-09-30T09:49:16;12.67;;;4.87;;
11655;SDS011;5884;43.618;1.438;2023-09-30T09:51:45;8.83;;;3.53;;
11655;SDS011;5884;43.618;1.438;2023-09-30T09:54:14;6.70;;;3.40;;
11655;SDS011;5884;43.618;1.438;2023-09-30T09:56:44;7.80;;;3.70;;
11655;SDS011;5884;43.618;1.438;2023-09-30T09:59:12;6.23;;;3.13;;
11655;SDS011;5884;43.618;1.438;2023-09-30T10:01:40;6.13;;;3.13;;
11655;SDS011;5884;43.618;1.438;2023-09-30T10:04:09;6.63;;;2.97;;
11655;SDS011;5884;43.618;1.438;2023-09-30T10:06:40;5.80;;;2.50;;
11655;SDS011;5884;43.618;1.438;2023-09-30T10:09:09;5.83;;;2.53;;
11655;SDS011;5884;43.618;1.438;2023-09-30T10:11:38;8.73;;;3.20;;
11655;SDS011;5884;43.618;1.438;2023-09-30T10:14:06;5.43;;;3.00;;
11655;SDS011;5884;43.618;1.438;2023-09-30T10:16:48;6.73;;;2.43;;
11655;SDS011;5884;43.618;1.438;2023-09-30T10:19:18;5.17;;;2.40;;
11655;SDS011;5884;43.618;1.438;2023-09-30T10:24:52;9.03;;;2.73;;
11655;SDS011;5884;43.618;1.438;2023-09-30T10:27:30;6.03;;;2.57;;
11655;SDS011;5884;43.618;1.438;2023-09-30T10:30:01;4.57;;;2.10;;
11655;SDS011;5884;43.618;1.438;2023-09-30T10:35:43;6.10;;;3.47;;
11655;SDS011;5884;43.618;1.438;2023-09-30T10:41:06;6.57;;;3.10;;
11655;SDS011;5884;43.618;1.438;2023-09-30T10:43:34;9.30;;;2.70;;
11655;SDS011;5884;43.618;1.438;2023-09-30T10:46:04;5.10;;;2.60;;
11655;SDS011;5884;43.618;1.438;2023-09-30T10:51:59;6.17;;;2.83;;
11655;SDS011;5884;43.618;1.438;2023-09-30T10:54:27;4.43;;;3.03;;
11655;SDS011;5884;43.618;1.438;2023-09-30T10:56:56;5.67;;;3.00;;
11655;SDS011;5884;43.618;1.438;2023-09-30T10:59:26;5.57;;;2.80;;
11655;SDS011;5884;43.618;1.438;2023-09-30T11:01:56;8.03;;;2.80;;
11655;SDS011;5884;43.618;1.438;2023-09-30T11:04:24;5.37;;;3.03;;
11655;SDS011;5884;43.618;1.438;2023-09-30T11:06:53;5.73;;;3.27;;
11655;SDS011;5884;43.618;1.438;2023-09-30T11:09:22;5.17;;;2.87;;
11655;SDS011;5884;43.618;1.438;2023-09-30T11:11:50;7.03;;;2.77;;
11655;SDS011;5884;43.618;1.438;2023-09-30T11:14:19;7.97;;;3.00;;
11655;SDS011;5884;43.618;1.438;2023-09-30T11:16:49;4.60;;;2.00;;
11655;SDS011;5884;43.618;1.438;2023-09-30T11:19:18;6.17;;;2.37;;
11655;SDS011;5884;43.618;1.438;2023-09-30T11:21:47;4.10;;;2.47;;
11655;SDS011;5884;43.618;1.438;2023-09-30T11:24:16;6.80;;;2.30;;
11655;SDS011;5884;43.618;1.438;2023-09-30T11:26:45;6.83;;;2.33;;
11655;SDS011;5884;43.618;1.438;2023-09-30T11:29:13;4.90;;;2.40;;
11655;SDS011;5884;43.618;1.438;2023-09-30T11:31:42;4.03;;;2.27;;
11655;SDS011;5884;43.618;1.438;2023-09-30T11:34:12;4.90;;;2.30;;
11655;SDS011;5884;43.618;1.438;2023-09-30T11:36:40;4.33;;;2.70;;
11655;SDS011;5884;43.618;1.438;2023-09-30T11:39:23;3.73;;;2.20;;
11655;SDS011;5884;43.618;1.438;2023-09-30T11:41:53;5.83;;;2.73;;
11655;SDS011;5884;43.618;1.438;2023-09-30T11:44:22;4.17;;;2.60;;
11655;SDS011;5884;43.618;1.438;2023-09-30T11:46:54;4.20;;;2.20;;
11655;SDS011;5884;43.618;1.438;2023-09-30T11:49:25;5.10;;;2.57;;
11655;SDS011;5884;43.618;1.438;2023-09-30T11:51:54;5.47;;;2.53;;
11655;SDS011;5884;43.618;1.438;2023-09-30T11:54:28;4.63;;;2.27;;
11655;SDS011;5884;43.618;1.438;2023-09-30T11:56:58;5.03;;;2.40;;
11655;SDS011;5884;43.618;1.438;2023-09-30T11:59:26;3.70;;;2.37;;
11655;SDS011;5884;43.618;1.438;2023-09-30T12:01:54;6.43;;;2.43;;
11655;SDS011;5884;43.618;1.438;2023-09-30T12:04:22;4.07;;;2.30;;
11655;SDS011;5884;43.618;1.438;2023-09-30T12:06:49;5.00;;;2.43;;
11655;SDS011;5884;43.618;1.438;2023-09-30T12:09:17;3.57;;;1.93;;
11655;SDS011;5884;43.618;1.438;2023-09-30T12:11:47;4.87;;;2.80;;
11655;SDS011;5884;43.618;1.438;2023-09-30T12:14:16;5.50;;;2.23;;
11655;SDS011;5884;43.618;1.438;2023-09-30T12:16:43;5.47;;;2.60;;
11655;SDS011;5884;43.618;1.438;2023-09-30T12:19:12;3.57;;;2.33;;
11655;SDS011;5884;43.618;1.438;2023-09-30T12:21:40;4.40;;;2.50;;
11655;SDS011;5884;43.618;1.438;2023-09-30T12:24:08;4.00;;;2.07;;
11655;SDS011;5884;43.618;1.438;2023-09-30T12:26:39;4.57;;;2.40;;
11655;SDS011;5884;43.618;1.438;2023-09-30T12:29:06;3.67;;;2.20;;
11655;SDS011;5884;43.618;1.438;2023-09-30T12:31:36;3.70;;;2.30;;
11655;SDS011;5884;43.618;1.438;2023-09-30T12:34:03;3.47;;;1.83;;
11655;SDS011;5884;43.618;1.438;2023-09-30T12:36:31;3.92;;;2.20;;
11655;SDS011;5884;43.618;1.438;2023-09-30T12:38:58;3.70;;;2.25;;
11655;SDS011;5884;43.618;1.438;2023-09-30T12:41:25;5.63;;;2.30;;
11655;SDS011;5884;43.618;1.438;2023-09-30T12:43:54;3.45;;;1.90;;
11655;SDS011;5884;43.618;1.438;2023-09-30T12:46:22;3.28;;;1.80;;
11655;SDS011;5884;43.618;1.438;2023-09-30T12:48:51;7.82;;;2.05;;
11655;SDS011;5884;43.618;1.438;2023-09-30T12:51:20;4.43;;;2.30;;
11655;SDS011;5884;43.618;1.438;2023-09-30T12:53:47;3.85;;;2.38;;
11655;SDS011;5884;43.618;1.438;2023-09-30T12:56:14;3.47;;;1.75;;
11655;SDS011;5884;43.618;1.438;2023-09-30T12:58:41;5.85;;;2.13;;
11655;SDS011;5884;43.618;1.438;2023-09-30T13:01:08;4.60;;;2.30;;
11655;SDS011;5884;43.618;1.438;2023-09-30T13:03:36;3.05;;;1.98;;
11655;SDS011;5884;43.618;1.438;2023-09-30T13:06:05;5.07;;;2.38;;
11655;SDS011;5884;43.618;1.438;2023-09-30T13:08:32;3.67;;;2.03;;
11655;SDS011;5884;43.618;1.438;2023-09-30T13:11:01;3.97;;;2.90;;
11655;SDS011;5884;43.618;1.438;2023-09-30T13:13:29;3.85;;;1.90;;
11655;SDS011;5884;43.618;1.438;2023-09-30T13:15:58;7.05;;;2.28;;
11655;SDS011;5884;43.618;1.438;2023-09-30T13:18:25;3.92;;;2.00;;
11655;SDS011;5884;43.618;1.438;2023-09-30T13:20:52;2.72;;;1.67;;
11655;SDS011;5884;43.618;1.438;2023-09-30T13:23:22;2.55;;;1.80;;
11655;SDS011;5884;43.618;1.438;2023-09-30T13:25:49;6.88;;;2.42;;
11655;SDS011;5884;43.618;1.438;2023-09-30T13:28:16;4.10;;;2.00;;
11655;SDS011;5884;43.618;1.438;2023-09-30T13:30:43;4.53;;;2.42;;
11655;SDS011;5884;43.618;1.438;2023-09-30T13:33:13;2.95;;;1.73;;
11655;SDS011;5884;43.618;1.438;2023-09-30T13:35:40;4.15;;;2.25;;
11655;SDS011;5884;43.618;1.438;2023-09-30T13:38:07;5.47;;;2.03;;
11655;SDS011;5884;43.618;1.438;2023-09-30T13:40:36;3.40;;;2.00;;
11655;SDS011;5884;43.618;1.438;2023-09-30T13:43:05;3.53;;;1.85;;
11655;SDS011;5884;43.618;1.438;2023-09-30T13:45:32;3.70;;;2.13;;
11655;SDS011;5884;43.618;1.438;2023-09-30T13:47:59;4.40;;;1.88;;
11655;SDS011;5884;43.618;1.438;2023-09-30T13:50:27;4.45;;;1.98;;
11655;SDS011;5884;43.618;1.438;2023-09-30T13:52:54;4.32;;;1.88;;
11655;SDS011;5884;43.618;1.438;2023-09-30T13:55:22;3.05;;;1.90;;
11655;SDS011;5884;43.618;1.438;2023-09-30T13:57:50;3.75;;;2.00;;
11655;SDS011;5884;43.618;1.438;2023-09-30T14:00:17;3.13;;;2.13;;
11655;SDS011;5884;43.618;1.438;2023-09-30T14:02:45;3.35;;;1.67;;
11655;SDS011;5884;43.618;1.438;2023-09-30T14:05:12;3.63;;;1.90;;
11655;SDS011;5884;43.618;1.438;2023-09-30T14:07:39;3.20;;;1.80;;
11655;SDS011;5884;43.618;1.438;2023-09-30T14:10:07;3.67;;;2.00;;
11655;SDS011;5884;43.618;1.438;2023-09-30T14:12:36;2.40;;;1.55;;
11655;SDS011;5884;43.618;1.438;2023-09-30T14:15:06;3.22;;;1.75;;
11655;SDS011;5884;43.618;1.438;2023-09-30T14:17:35;3.15;;;1.85;;
11655;SDS011;5884;43.618;1.438;2023-09-30T14:20:02;2.35;;;1.83;;
11655;SDS011;5884;43.618;1.438;2023-09-30T14:22:30;3.08;;;1.85;;
11655;SDS011;5884;43.618;1.438;2023-09-30T14:24:58;4.00;;;1.75;;
11655;SDS011;5884;43.618;1.438;2023-09-30T14:27:25;4.32;;;1.90;;
11655;SDS011;5884;43.618;1.438;2023-09-30T14:29:52;4.18;;;1.80;;
11655;SDS011;5884;43.618;1.438;2023-09-30T14:32:21;3.42;;;1.80;;
11655;SDS011;5884;43.618;1.438;2023-09-30T14:34:49;3.15;;;1.88;;
11655;SDS011;5884;43.618;1.438;2023-09-30T14:37:16;3.78;;;1.98;;
11655;SDS011;5884;43.618;1.438;2023-09-30T14:39:44;3.65;;;1.63;;
11655;SDS011;5884;43.618;1.438;2023-09-30T14:42:11;4.30;;;1.83;;
11655;SDS011;5884;43.618;1.438;2023-09-30T14:44:38;2.10;;;1.50;;
11655;SDS011;5884;43.618;1.438;2023-09-30T14:47:05;3.05;;;1.85;;
11655;SDS011;5884;43.618;1.438;2023-09-30T14:49:35;3.58;;;1.50;;
11655;SDS011;5884;43.618;1.438;2023-09-30T14:52:02;4.75;;;2.25;;
11655;SDS011;5884;43.618;1.438;2023-09-30T14:54:30;2.65;;;1.80;;
11655;SDS011;5884;43.618;1.438;2023-09-30T14:56:57;3.78;;;1.90;;
11655;SDS011;5884;43.618;1.438;2023-09-30T14:59:25;6.05;;;2.00;;
11655;SDS011;5884;43.618;1.438;2023-09-30T15:01:52;2.80;;;1.80;;
11655;SDS011;5884;43.618;1.438;2023-09-30T15:04:19;3.08;;;1.70;;
11655;SDS011;5884;43.618;1.438;2023-09-30T15:06:48;3.22;;;1.83;;
11655;SDS011;5884;43.618;1.438;2023-09-30T15:09:15;3.03;;;1.90;;
11655;SDS011;5884;43.618;1.438;2023-09-30T15:11:43;2.97;;;1.70;;
11655;SDS011;5884;43.618;1.438;2023-09-30T15:14:10;3.88;;;2.05;;
11655;SDS011;5884;43.618;1.438;2023-09-30T15:16:37;6.85;;;2.13;;
11655;SDS011;5884;43.618;1.438;2023-09-30T15:19:04;2.67;;;1.67;;
11655;SDS011;5884;43.618;1.438;2023-09-30T15:21:31;4.30;;;2.10;;
11655;SDS011;5884;43.618;1.438;2023-09-30T15:24:00;3.20;;;1.70;;
11655;SDS011;5884;43.618;1.438;2023-09-30T15:26:29;3.22;;;1.75;;
11655;SDS011;5884;43.618;1.438;2023-09-30T15:28:57;4.70;;;1.88;;
11655;SDS011;5884;43.618;1.438;2023-09-30T15:31:26;3.28;;;1.88;;
11655;SDS011;5884;43.618;1.438;2023-09-30T15:33:54;4.32;;;1.65;;
11655;SDS011;5884;43.618;1.438;2023-09-30T15:36:22;3.65;;;1.90;;
11655;SDS011;5884;43.618;1.438;2023-09-30T15:38:52;2.63;;;1.73;;
11655;SDS011;5884;43.618;1.438;2023-09-30T15:41:22;3.08;;;1.80;;
11655;SDS011;5884;43.618;1.438;2023-09-30T15:43:50;3.42;;;2.00;;
11655;SDS011;5884;43.618;1.438;2023-09-30T15:46:17;2.85;;;1.73;;
11655;SDS011;5884;43.618;1.438;2023-09-30T15:48:45;3.55;;;1.67;;
11655;SDS011;5884;43.618;1.438;2023-09-30T15:51:12;2.97;;;1.58;;
11655;SDS011;5884;43.618;1.438;2023-09-30T15:53:39;3.03;;;1.58;;
11655;SDS011;5884;43.618;1.438;2023-09-30T15:56:06;2.70;;;1.58;;
11655;SDS011;5884;43.618;1.438;2023-09-30T15:58:35;3.13;;;1.75;;
11655;SDS011;5884;43.618;1.438;2023-09-30T16:01:02;2.47;;;1.70;;
11655;SDS011;5884;43.618;1.438;2023-09-30T16:03:29;3.45;;;1.80;;
11655;SDS011;5884;43.618;1.438;2023-09-30T16:05:56;2.72;;;1.60;;
11655;SDS011;5884;43.618;1.438;2023-09-30T16:08:24;3.28;;;2.08;;
11655;SDS011;5884;43.618;1.438;2023-09-30T16:10:51;2.97;;;1.77;;
11655;SDS011;5884;43.618;1.438;2023-09-30T16:13:18;2.90;;;1.63;;
11655;SDS011;5884;43.618;1.438;2023-09-30T16:15:47;4.05;;;1.60;;
11655;SDS011;5884;43.618;1.438;2023-09-30T16:18:14;3.20;;;1.40;;
11655;SDS011;5884;43.618;1.438;2023-09-30T16:20:41;2.97;;;1.65;;
11655;SDS011;5884;43.618;1.438;2023-09-30T16:23:09;2.35;;;1.33;;
11655;SDS011;5884;43.618;1.438;2023-09-30T16:25:36;4.28;;;1.45;;
11655;SDS011;5884;43.618;1.438;2023-09-30T16:28:03;5.63;;;1.45;;
11655;SDS011;5884;43.618;1.438;2023-09-30T16:30:30;2.20;;;1.25;;
11655;SDS011;5884;43.618;1.438;2023-09-30T16:32:59;3.45;;;1.30;;
11655;SDS011;5884;43.618;1.438;2023-09-30T16:35:26;5.38;;;1.50;;
11655;SDS011;5884;43.618;1.438;2023-09-30T16:37:53;4.90;;;1.30;;
11655;SDS011;5884;43.618;1.438;2023-09-30T16:40:21;3.25;;;1.60;;
11655;SDS011;5884;43.618;1.438;2023-09-30T16:42:48;2.90;;;1.73;;
11655;SDS011;5884;43.618;1.438;2023-09-30T16:45:15;2.83;;;1.60;;
11655;SDS011;5884;43.618;1.438;2023-09-30T16:47:43;4.43;;;1.90;;
11655;SDS011;5884;43.618;1.438;2023-09-30T16:50:12;4.05;;;1.70;;
11655;SDS011;5884;43.618;1.438;2023-09-30T16:52:39;3.45;;;1.35;;
11655;SDS011;5884;43.618;1.438;2023-09-30T16:55:07;3.42;;;1.70;;
11655;SDS011;5884;43.618;1.438;2023-09-30T16:57:34;4.60;;;2.38;;
11655;SDS011;5884;43.618;1.438;2023-09-30T17:00:02;4.65;;;1.73;;
11655;SDS011;5884;43.618;1.438;2023-09-30T17:02:31;3.03;;;1.60;;
11655;SDS011;5884;43.618;1.438;2023-09-30T17:04:58;4.93;;;2.40;;
11655;SDS011;5884;43.618;1.438;2023-09-30T17:07:29;3.58;;;1.80;;
11655;SDS011;5884;43.618;1.438;2023-09-30T17:09:56;3.88;;;1.95;;
11655;SDS011;5884;43.618;1.438;2023-09-30T17:12:23;4.18;;;1.98;;
11655;SDS011;5884;43.618;1.438;2023-09-30T17:14:51;3.25;;;1.90;;
11655;SDS011;5884;43.618;1.438;2023-09-30T17:17:18;3.25;;;1.85;;
11655;SDS011;5884;43.618;1.438;2023-09-30T17:19:45;3.33;;;2.05;;
11655;SDS011;5884;43.618;1.438;2023-09-30T17:22:12;5.30;;;2.22;;
11655;SDS011;5884;43.618;1.438;2023-09-30T17:24:43;6.38;;;2.63;;
11655;SDS011;5884;43.618;1.438;2023-09-30T17:27:11;3.95;;;2.05;;
11655;SDS011;5884;43.618;1.438;2023-09-30T17:29:38;4.55;;;2.20;;
11655;SDS011;5884;43.618;1.438;2023-09-30T17:32:05;5.85;;;2.10;;
11655;SDS011;5884;43.618;1.438;2023-09-30T17:34:33;3.42;;;2.33;;
11655;SDS011;5884;43.618;1.438;2023-09-30T17:37:02;7.85;;;2.00;;
11655;SDS011;5884;43.618;1.438;2023-09-30T17:39:29;5.20;;;1.80;;
11655;SDS011;5884;43.618;1.438;2023-09-30T17:41:58;3.27;;;1.80;;
11655;SDS011;5884;43.618;1.438;2023-09-30T17:44:25;5.70;;;1.98;;
11655;SDS011;5884;43.618;1.438;2023-09-30T17:46:52;3.40;;;1.80;;
11655;SDS011;5884;43.618;1.438;2023-09-30T17:49:20;4.13;;;2.00;;
11655;SDS011;5884;43.618;1.438;2023-09-30T17:51:47;3.85;;;2.00;;
11655;SDS011;5884;43.618;1.438;2023-09-30T17:54:14;4.17;;;1.90;;
11655;SDS011;5884;43.618;1.438;2023-09-30T17:56:42;4.27;;;2.20;;
11655;SDS011;5884;43.618;1.438;2023-09-30T17:59:10;5.13;;;2.17;;
11655;SDS011;5884;43.618;1.438;2023-09-30T18:01:38;5.03;;;2.43;;
11655;SDS011;5884;43.618;1.438;2023-09-30T18:04:07;5.40;;;2.33;;
11655;SDS011;5884;43.618;1.438;2023-09-30T18:06:35;8.47;;;2.63;;
11655;SDS011;5884;43.618;1.438;2023-09-30T18:09:03;7.30;;;3.10;;
11655;SDS011;5884;43.618;1.438;2023-09-30T18:11:32;4.87;;;2.57;;
11655;SDS011;5884;43.618;1.438;2023-09-30T18:14:00;4.13;;;2.70;;
11655;SDS011;5884;43.618;1.438;2023-09-30T18:16:29;4.90;;;3.00;;
11655;SDS011;5884;43.618;1.438;2023-09-30T18:18:56;4.93;;;2.80;;
11655;SDS011;5884;43.618;1.438;2023-09-30T18:21:24;5.17;;;3.17;;
11655;SDS011;5884;43.618;1.438;2023-09-30T18:23:51;5.27;;;3.20;;
11655;SDS011;5884;43.618;1.438;2023-09-30T18:26:18;4.93;;;3.43;;
11655;SDS011;5884;43.618;1.438;2023-09-30T18:28:46;5.03;;;3.53;;
11655;SDS011;5884;43.618;1.438;2023-09-30T18:31:16;5.73;;;3.50;;
11655;SDS011;5884;43.618;1.438;2023-09-30T18:33:45;6.87;;;3.37;;
11655;SDS011;5884;43.618;1.438;2023-09-30T18:36:12;7.23;;;3.30;;
11655;SDS011;5884;43.618;1.438;2023-09-30T18:38:40;6.20;;;3.20;;
11655;SDS011;5884;43.618;1.438;2023-09-30T18:41:10;9.17;;;3.70;;
11655;SDS011;5884;43.618;1.438;2023-09-30T18:43:41;9.83;;;3.37;;
11655;SDS011;5884;43.618;1.438;2023-09-30T18:46:08;9.30;;;3.70;;
11655;SDS011;5884;43.618;1.438;2023-09-30T18:48:37;7.30;;;3.73;;
11655;SDS011;5884;43.618;1.438;2023-09-30T18:51:06;8.07;;;3.27;;
11655;SDS011;5884;43.618;1.438;2023-09-30T18:53:34;7.07;;;3.93;;
11655;SDS011;5884;43.618;1.438;2023-09-30T18:56:03;5.97;;;3.50;;
11655;SDS011;5884;43.618;1.438;2023-09-30T18:58:31;5.07;;;3.77;;
11655;SDS011;5884;43.618;1.438;2023-09-30T19:00:59;8.17;;;3.43;;
11655;SDS011;5884;43.618;1.438;2023-09-30T19:03:26;6.03;;;3.57;;
11655;SDS011;5884;43.618;1.438;2023-09-30T19:05:53;8.50;;;3.63;;
11655;SDS011;5884;43.618;1.438;2023-09-30T19:08:22;5.63;;;3.77;;
11655;SDS011;5884;43.618;1.438;2023-09-30T19:10:49;6.10;;;3.80;;
11655;SDS011;5884;43.618;1.438;2023-09-30T19:13:16;7.43;;;4.27;;
11655;SDS011;5884;43.618;1.438;2023-09-30T19:15:43;7.17;;;3.90;;
11655;SDS011;5884;43.618;1.438;2023-09-30T19:18:11;5.90;;;4.17;;
11655;SDS011;5884;43.618;1.438;2023-09-30T19:20:38;8.03;;;4.40;;
11655;SDS011;5884;43.618;1.438;2023-09-30T19:23:09;9.10;;;4.43;;
11655;SDS011;5884;43.618;1.438;2023-09-30T19:25:38;11.07;;;5.13;;
11655;SDS011;5884;43.618;1.438;2023-09-30T19:28:05;6.83;;;4.93;;
11655;SDS011;5884;43.618;1.438;2023-09-30T19:30:32;8.63;;;5.33;;
11655;SDS011;5884;43.618;1.438;2023-09-30T19:33:00;7.40;;;4.90;;
11655;SDS011;5884;43.618;1.438;2023-09-30T19:35:28;8.60;;;5.60;;
11655;SDS011;5884;43.618;1.438;2023-09-30T19:37:55;11.57;;;5.70;;
11655;SDS011;5884;43.618;1.438;2023-09-30T19:40:22;10.97;;;5.57;;
11655;SDS011;5884;43.618;1.438;2023-09-30T19:42:51;8.93;;;5.70;;
11655;SDS011;5884;43.618;1.438;2023-09-30T19:45:18;8.67;;;6.20;;
11655;SDS011;5884;43.618;1.438;2023-09-30T19:47:45;10.67;;;6.40;;
11655;SDS011;5884;43.618;1.438;2023-09-30T19:50:13;10.43;;;5.60;;
11655;SDS011;5884;43.618;1.438;2023-09-30T19:52:40;10.37;;;6.07;;
11655;SDS011;5884;43.618;1.438;2023-09-30T19:55:07;8.73;;;5.73;;
11655;SDS011;5884;43.618;1.438;2023-09-30T19:57:35;9.20;;;6.17;;
11655;SDS011;5884;43.618;1.438;2023-09-30T20:00:04;12.93;;;6.33;;
11655;SDS011;5884;43.618;1.438;2023-09-30T20:02:35;9.00;;;5.87;;